Time;durP1;ratioP1;P1;durP2;ratioP2;P2;SDS_P1;SDS_P2;PMS_P1;PMS_P2;Temp;Humidity;BMP_temperature;BMP_pressure;BME280_temperature;BME280_humidity;BME280_pressure;Samples;Min_cycle;Max_cycle;Signal;HPM_P1;HPM_P2
2023/11/27 00:01:58;;;;;;;2.67;2.47;;;6.40;45.10;;;;;;10283706;28;20303;-75
2023/11/27 00:07:05;;;;;;;2.57;2.37;;;6.40;44.90;;;;;;10285127;28;20231;-75
2023/11/27 00:12:09;;;;;;;3.20;2.60;;;6.40;44.90;;;;;;10277667;28;20235;-78
2023/11/27 00:17:12;;;;;;;2.33;2.13;;;6.50;45.50;;;;;;10285646;28;20235;-78
2023/11/27 00:22:17;;;;;;;2.50;2.30;;;6.50;44.80;;;;;;10283363;28;20256;-78
2023/11/27 00:27:22;;;;;;;2.17;1.97;;;6.50;44.90;;;;;;10289207;28;20243;-77
2023/11/27 00:32:25;;;;;;;2.30;2.20;;;6.50;44.90;;;;;;10291564;28;20227;-78
2023/11/27 00:37:30;;;;;;;2.23;2.10;;;6.40;44.90;;;;;;10292542;28;20306;-78
2023/11/27 00:42:33;;;;;;;2.47;2.27;;;6.40;45.00;;;;;;10298112;28;20610;-77
2023/11/27 00:47:36;;;;;;;3.47;2.30;;;6.40;45.00;;;;;;10295703;28;20606;-78
2023/11/27 00:52:41;;;;;;;2.60;2.40;;;6.40;45.00;;;;;;10298353;28;20282;-77
2023/11/27 00:57:44;;;;;;;2.70;2.43;;;6.30;45.10;;;;;;10291844;28;20227;-77
2023/11/27 01:02:52;;;;;;;2.60;2.40;;;6.40;45.20;;;;;;10286269;28;20256;-77
2023/11/27 01:07:56;;;;;;;2.63;2.43;;;6.40;45.10;;;;;;10290152;28;20231;-77
2023/11/27 01:13:00;;;;;;;2.50;2.30;;;6.40;45.20;;;;;;10293176;28;20315;-77
2023/11/27 01:18:03;;;;;;;2.70;2.50;;;6.40;45.10;;;;;;10293611;28;20301;-77
2023/11/27 01:23:07;;;;;;;2.90;2.60;;;6.40;45.10;;;;;;10284819;28;20281;-77
2023/11/27 01:28:11;;;;;;;2.87;2.63;;;6.50;45.10;;;;;;10270382;28;20232;-78
2023/11/27 01:33:16;;;;;;;3.70;2.90;;;6.50;45.00;;;;;;10271435;28;20238;-78
2023/11/27 01:38:20;;;;;;;3.00;2.80;;;6.50;45.00;;;;;;10292369;28;20234;-78
2023/11/27 01:43:24;;;;;;;2.60;2.40;;;6.50;45.00;;;;;;10289661;28;20238;-78
2023/11/27 01:48:28;;;;;;;3.27;2.60;;;6.50;44.90;;;;;;10283739;28;20234;-76
2023/11/27 01:53:33;;;;;;;3.10;2.90;;;6.50;44.90;;;;;;10278509;28;20744;-76
2023/11/27 01:58:36;;;;;;;2.87;2.53;;;6.50;45.00;;;;;;10273329;28;20661;-76
2023/11/27 02:03:39;;;;;;;2.73;2.53;;;6.50;45.00;;;;;;10269782;28;20231;-75
2023/11/27 02:08:44;;;;;;;2.70;2.50;;;6.50;44.90;;;;;;10265272;28;20626;-75
2023/11/27 02:13:47;;;;;;;3.37;2.70;;;6.60;45.00;;;;;;10278629;28;20322;-75
2023/11/27 02:18:51;;;;;;;2.87;2.67;;;6.60;44.80;;;;;;10272783;28;20250;-75
2023/11/27 02:23:55;;;;;;;2.73;2.53;;;6.50;44.80;;;;;;10270865;28;20600;-75
2023/11/27 02:28:59;;;;;;;3.37;2.73;;;6.60;45.00;;;;;;10277011;28;20285;-76
2023/11/27 02:34:02;;;;;;;2.77;2.57;;;6.50;44.90;;;;;;10273044;28;21680;-76
2023/11/27 02:39:07;;;;;;;2.70;2.50;;;6.50;44.80;;;;;;10271674;28;20228;-76
2023/11/27 02:44:12;;;;;;;3.00;2.70;;;6.50;45.10;;;;;;10272840;28;20232;-76
2023/11/27 02:49:15;;;;;;;2.87;2.50;;;6.50;45.80;;;;;;10276609;28;20718;-76
2023/11/27 02:54:19;;;;;;;2.93;2.63;;;6.50;45.00;;;;;;10276905;28;20250;-75
2023/11/27 02:59:23;;;;;;;3.10;2.63;;;6.50;45.10;;;;;;10280330;28;20223;-75
2023/11/27 03:04:30;;;;;;;2.93;2.73;;;6.50;45.10;;;;;;10276445;28;20232;-76
2023/11/27 03:09:35;;;;;;;3.00;2.70;;;6.50;45.00;;;;;;10281096;28;20644;-76
2023/11/27 03:14:38;;;;;;;2.77;2.50;;;6.50;45.10;;;;;;10278434;28;20680;-76
2023/11/27 03:19:41;;;;;;;3.20;2.80;;;6.50;44.90;;;;;;10278049;28;20320;-75
2023/11/27 03:24:52;;;;;;;2.80;2.60;;;6.50;44.90;;;;;;10271348;28;20268;-75
2023/11/27 03:29:55;;;;;;;4.13;3.10;;;6.40;45.10;;;;;;10273359;28;20228;-76
2023/11/27 03:34:58;;;;;;;3.47;3.13;;;6.30;45.10;;;;;;10268974;28;20232;-76
2023/11/27 03:40:05;;;;;;;2.83;2.63;;;6.30;45.30;;;;;;10281089;28;20716;-76
2023/11/27 03:45:09;;;;;;;3.67;2.70;;;6.20;45.50;;;;;;10274921;28;20801;-76
2023/11/27 03:50:13;;;;;;;3.27;2.73;;;6.10;45.50;;;;;;10276740;28;20231;-76
2023/11/27 03:55:17;;;;;;;3.07;2.87;;;6.00;45.50;;;;;;10278482;28;20275;-75
2023/11/27 04:00:21;;;;;;;3.13;2.90;;;6.00;45.80;;;;;;10278702;28;20227;-75
2023/11/27 04:05:24;;;;;;;3.97;3.33;;;5.90;45.60;;;;;;10277769;28;20743;-76
2023/11/27 04:10:29;;;;;;;3.40;3.10;;;5.90;45.60;;;;;;10274808;28;20842;-77
2023/11/27 04:15:32;;;;;;;3.40;3.10;;;5.90;45.80;;;;;;10291382;28;20236;-77
2023/11/27 04:20:35;;;;;;;2.97;2.67;;;5.90;45.70;;;;;;10287608;28;20748;-77
2023/11/27 04:25:40;;;;;;;3.03;2.83;;;5.90;45.70;;;;;;10297767;28;20326;-77
2023/11/27 04:30:47;;;;;;;3.30;3.10;;;6.00;45.80;;;;;;10282765;28;20236;-77
2023/11/27 04:35:50;;;;;;;3.70;3.40;;;6.10;45.80;;;;;;10277361;28;20228;-77
2023/11/27 04:40:58;;;;;;;2.97;2.77;;;6.20;45.60;;;;;;10271904;28;20246;-77
2023/11/27 04:46:01;;;;;;;3.47;3.17;;;6.30;45.50;;;;;;10287965;28;20237;-77
2023/11/27 04:51:05;;;;;;;3.47;2.93;;;6.30;45.30;;;;;;10279299;28;20240;-77
2023/11/27 04:56:10;;;;;;;4.07;3.67;;;6.30;45.20;;;;;;10281608;28;20273;-77
2023/11/27 05:01:14;;;;;;;3.63;3.33;;;6.30;45.20;;;;;;10283792;28;20258;-77
2023/11/27 05:06:17;;;;;;;3.90;3.60;;;6.30;45.10;;;;;;10279393;28;20235;-77
2023/11/27 05:11:22;;;;;;;4.20;3.90;;;6.20;45.00;;;;;;10280971;28;20240;-77
2023/11/27 05:16:26;;;;;;;4.50;3.90;;;6.20;45.10;;;;;;10270031;28;20228;-77
2023/11/27 05:21:29;;;;;;;5.00;4.50;;;6.10;45.00;;;;;;10285012;28;20243;-77
2023/11/27 05:26:34;;;;;;;6.07;4.60;;;6.00;44.90;;;;;;10284075;28;20227;-77
2023/11/27 05:31:38;;;;;;;4.20;3.90;;;6.00;45.10;;;;;;10279639;28;20232;-77
2023/11/27 05:36:42;;;;;;;4.87;4.37;;;6.00;45.20;;;;;;10270099;28;20305;-77
2023/11/27 05:41:49;;;;;;;5.83;4.33;;;5.90;45.20;;;;;;10281042;28;20243;-77
2023/11/27 05:46:52;;;;;;;4.77;4.37;;;5.90;45.30;;;;;;10288852;28;20226;-77
2023/11/27 05:52:03;;;;;;;4.93;4.53;;;5.90;45.20;;;;;;10292266;28;20246;-78
2023/11/27 05:57:14;;;;;;;4.77;4.33;;;6.00;45.30;;;;;;10294780;28;20339;-78
2023/11/27 06:02:17;;;;;;;4.60;4.27;;;6.00;45.30;;;;;;10292997;28;20236;-77
2023/11/27 06:07:20;;;;;;;4.47;4.07;;;6.00;45.20;;;;;;10302250;28;20270;-78
2023/11/27 06:12:25;;;;;;;5.97;5.40;;;6.00;45.10;;;;;;10307861;28;20235;-78
2023/11/27 06:17:28;;;;;;;6.67;6.07;;;6.00;45.00;;;;;;10292805;28;20295;-79
2023/11/27 06:22:33;;;;;;;4.67;4.27;;;6.10;44.90;;;;;;10289254;28;20354;-79
2023/11/27 06:27:38;;;;;;;4.67;4.27;;;6.10;44.80;;;;;;10294946;28;20255;-77
2023/11/27 06:32:42;;;;;;;5.13;4.70;;;6.00;45.10;;;;;;10282721;28;20331;-78
2023/11/27 06:37:47;;;;;;;8.30;7.40;;;6.10;45.00;;;;;;10279849;28;20270;-75
2023/11/27 06:42:52;;;;;;;6.07;5.47;;;6.10;44.70;;;;;;10280313;28;21016;-75
2023/11/27 06:47:56;;;;;;;5.60;5.10;;;6.10;44.40;;;;;;10281871;28;20231;-75
2023/11/27 06:52:59;;;;;;;4.47;4.07;;;6.10;44.50;;;;;;10284400;28;20234;-75
2023/11/27 06:58:03;;;;;;;3.83;3.53;;;6.00;44.50;;;;;;10280113;28;20220;-76
2023/11/27 07:03:07;;;;;;;4.50;4.10;;;6.00;44.60;;;;;;10277937;28;20235;-77
2023/11/27 07:08:11;;;;;;;4.87;4.50;;;6.00;44.60;;;;;;10267205;28;20744;-77
2023/11/27 07:13:17;;;;;;;4.43;4.03;;;6.00;44.70;;;;;;10269986;28;20318;-77
2023/11/27 07:18:21;;;;;;;4.47;4.07;;;6.10;44.50;;;;;;10274839;28;20228;-77
2023/11/27 07:23:32;;;;;;;3.87;3.57;;;6.20;44.40;;;;;;10281436;28;20239;-76
2023/11/27 07:28:40;;;;;;;3.73;3.43;;;6.10;44.10;;;;;;10269303;28;20236;-76
2023/11/27 07:33:44;;;;;;;3.67;3.37;;;6.10;43.90;;;;;;10272798;28;20228;-77
2023/11/27 07:38:48;;;;;;;4.03;3.67;;;6.00;44.10;;;;;;10287960;28;20695;-77
2023/11/27 07:43:57;;;;;;;3.50;3.20;;;6.00;44.30;;;;;;10279815;28;20303;-77
2023/11/27 07:49:01;;;;;;;3.10;2.90;;;5.90;44.50;;;;;;10285685;28;20263;-76
2023/11/27 07:54:05;;;;;;;3.80;3.07;;;5.90;44.50;;;;;;10290779;28;20701;-77
2023/11/27 07:59:09;;;;;;;3.60;3.10;;;5.90;44.60;;;;;;10285142;28;20232;-76
2023/11/27 08:04:13;;;;;;;3.47;3.17;;;5.90;44.70;;;;;;10279835;28;20230;-76
2023/11/27 08:09:17;;;;;;;3.70;3.40;;;6.00;44.80;;;;;;10289611;28;20711;-76
2023/11/27 08:14:22;;;;;;;3.30;3.10;;;6.00;44.70;;;;;;10291928;28;20233;-76
2023/11/27 08:19:26;;;;;;;3.30;3.00;;;6.10;44.60;;;;;;10276870;28;20245;-77
2023/11/27 08:24:29;;;;;;;3.03;2.80;;;6.20;44.80;;;;;;10259964;28;20244;-77
2023/11/27 08:29:35;;;;;;;3.20;3.00;;;6.30;44.70;;;;;;10278239;28;20829;-76
2023/11/27 08:34:39;;;;;;;3.17;2.97;;;6.40;44.50;;;;;;10267587;28;20235;-76
2023/11/27 08:39:42;;;;;;;4.93;4.27;;;6.50;44.40;;;;;;10284405;28;20232;-75
2023/11/27 08:44:47;;;;;;;4.23;3.83;;;6.60;44.30;;;;;;10273567;28;20235;-75
2023/11/27 08:49:50;;;;;;;3.40;2.60;;;6.60;44.00;;;;;;10278902;28;20631;-75
2023/11/27 08:54:53;;;;;;;2.47;2.27;;;6.60;44.00;;;;;;10279077;28;20242;-74
2023/11/27 08:59:58;;;;;;;2.40;2.20;;;6.60;44.00;;;;;;10295107;28;20235;-75
2023/11/27 09:05:01;;;;;;;2.90;2.10;;;6.60;44.00;;;;;;10276418;28;20254;-76
2023/11/27 09:10:05;;;;;;;2.80;2.43;;;6.60;44.00;;;;;;10270197;28;20224;-77
2023/11/27 09:15:12;;;;;;;2.37;2.17;;;6.60;44.00;;;;;;10282555;28;20239;-76
2023/11/27 09:20:16;;;;;;;3.10;2.83;;;6.70;44.10;;;;;;10298127;28;20233;-76
2023/11/27 09:25:19;;;;;;;4.33;3.03;;;6.70;44.10;;;;;;10291353;28;20245;-75
2023/11/27 09:30:24;;;;;;;3.20;2.90;;;6.70;44.10;;;;;;10283025;28;20330;-77
2023/11/27 09:35:28;;;;;;;3.07;2.77;;;6.80;43.90;;;;;;10296412;28;20228;-75
2023/11/27 09:40:39;;;;;;;3.90;3.07;;;6.80;43.70;;;;;;10281008;28;20944;-76
2023/11/27 09:45:44;;;;;;;4.67;4.07;;;6.90;43.80;;;;;;10298070;28;20656;-76
2023/11/27 09:50:56;;;;;;;5.20;3.93;;;6.90;43.70;;;;;;10280849;28;20797;-76
2023/11/27 09:55:59;;;;;;;3.67;3.30;;;7.00;43.80;;;;;;10301961;28;20226;-75
2023/11/27 10:01:06;;;;;;;3.07;2.83;;;7.00;43.80;;;;;;10282933;28;21503;-78
2023/11/27 10:06:17;;;;;;;3.57;2.63;;;7.00;43.40;;;;;;10288519;28;20238;-77
2023/11/27 10:11:22;;;;;;;2.40;2.20;;;7.10;43.50;;;;;;10280305;28;20774;-77
2023/11/27 10:16:28;;;;;;;2.20;2.00;;;7.20;43.70;;;;;;10267458;28;20232;-77
2023/11/27 10:21:32;;;;;;;3.73;2.13;;;7.20;43.60;;;;;;10279732;28;20244;-76
2023/11/27 10:26:37;;;;;;;2.13;2.00;;;7.20;43.70;;;;;;10286103;28;20233;-75
2023/11/27 10:31:41;;;;;;;1.83;1.60;;;7.30;43.50;;;;;;10281780;28;20242;-74
2023/11/27 10:36:56;;;;;;;1.63;1.53;;;7.40;43.30;;;;;;10286835;28;20243;-75
2023/11/27 10:42:02;;;;;;;1.97;1.80;;;7.50;42.80;;;;;;10286851;28;20246;-75
2023/11/27 10:47:07;;;;;;;2.63;2.17;;;7.60;43.30;;;;;;10301120;28;20219;-76
2023/11/27 10:52:14;;;;;;;1.83;1.73;;;7.60;42.70;;;;;;10280529;28;20227;-76
2023/11/27 10:57:20;;;;;;;2.00;1.90;;;7.70;43.10;;;;;;10284333;28;20230;-76
2023/11/27 11:02:26;;;;;;;1.93;1.80;;;7.70;42.70;;;;;;10284710;28;20600;-76
2023/11/27 11:07:36;;;;;;;1.80;1.70;;;7.80;42.60;;;;;;10285968;28;20235;-76
2023/11/27 11:12:41;;;;;;;2.30;1.70;;;7.80;42.50;;;;;;10285707;28;20273;-75
2023/11/27 11:17:54;;;;;;;2.23;2.03;;;7.90;42.70;;;;;;10284771;28;20232;-75
2023/11/27 11:23:15;;;;;;;2.40;1.70;;;7.90;42.00;;;;;;10283129;28;20227;-74
2023/11/27 11:28:33;;;;;;;1.90;1.53;;;8.00;42.10;;;;;;10267710;28;20771;-77
2023/11/27 11:33:38;;;;;;;1.87;1.77;;;8.10;42.20;;;;;;10277609;28;20777;-76
2023/11/27 11:38:45;;;;;;;2.37;2.17;;;8.20;42.30;;;;;;10276185;28;20231;-76
2023/11/27 11:43:48;;;;;;;2.50;2.20;;;8.30;41.80;;;;;;10274283;28;20785;-77
2023/11/27 11:48:56;;;;;;;2.40;2.20;;;8.30;42.40;;;;;;10284450;28;20243;-76
2023/11/27 11:53:59;;;;;;;2.37;2.10;;;8.40;41.70;;;;;;10281433;28;20334;-77
2023/11/27 11:59:10;;;;;;;2.47;2.23;;;8.40;42.30;;;;;;10279858;28;20242;-76
2023/11/27 12:04:18;;;;;;;2.60;2.03;;;8.40;42.00;;;;;;10276797;28;20255;-76
2023/11/27 12:09:24;;;;;;;2.50;2.10;;;8.50;41.60;;;;;;10282557;28;20238;-76
2023/11/27 12:14:31;;;;;;;2.37;2.17;;;8.50;41.30;;;;;;10295804;28;20724;-76
2023/11/27 12:19:36;;;;;;;2.37;2.17;;;8.60;41.70;;;;;;10317172;28;20273;-75
2023/11/27 12:24:44;;;;;;;1.83;1.73;;;8.60;41.50;;;;;;10323053;28;20323;-75
2023/11/27 12:29:49;;;;;;;2.17;1.97;;;8.60;40.30;;;;;;10300355;28;20243;-76
2023/11/27 12:34:54;;;;;;;4.60;2.40;;;8.60;41.10;;;;;;10309260;28;20256;-77
2023/11/27 12:39:59;;;;;;;2.30;1.90;;;8.60;41.20;;;;;;10318480;28;20226;-78
2023/11/27 12:45:06;;;;;;;2.30;2.10;;;8.50;40.90;;;;;;10335876;28;20895;-77
2023/11/27 12:50:22;;;;;;;2.83;2.40;;;8.50;40.40;;;;;;10321535;28;20286;-77
2023/11/27 12:55:30;;;;;;;2.93;2.13;;;8.50;40.80;;;;;;10294725;28;20281;-77
2023/11/27 13:00:34;;;;;;;2.10;1.90;;;8.50;41.10;;;;;;10289386;28;20265;-78
2023/11/27 13:05:38;;;;;;;2.53;2.20;;;8.50;41.30;;;;;;10304219;28;20314;-77
2023/11/27 13:10:43;;;;;;;2.60;2.40;;;8.60;40.90;;;;;;10301621;28;20231;-77
2023/11/27 13:15:46;;;;;;;3.67;2.90;;;8.70;41.10;;;;;;10318776;28;20235;-77
2023/11/27 13:20:53;;;;;;;2.53;2.30;;;8.70;40.80;;;;;;10301405;28;20790;-77
2023/11/27 13:26:09;;;;;;;2.47;2.20;;;8.70;40.50;;;;;;10300194;28;20239;-76
2023/11/27 13:31:15;;;;;;;2.90;2.70;;;8.80;40.90;;;;;;10298685;28;20242;-76
2023/11/27 13:36:22;;;;;;;2.43;2.20;;;8.80;40.90;;;;;;10297212;28;20730;-76
2023/11/27 13:41:30;;;;;;;2.73;2.00;;;8.80;40.40;;;;;;10297317;28;20993;-76
2023/11/27 13:46:33;;;;;;;2.13;1.93;;;8.80;40.40;;;;;;10286046;28;20231;-76
2023/11/27 13:51:38;;;;;;;2.33;2.13;;;8.80;40.40;;;;;;10290380;28;20239;-77
2023/11/27 13:56:41;;;;;;;2.10;1.93;;;8.80;39.90;;;;;;10290038;28;20638;-77
2023/11/27 14:01:45;;;;;;;9.30;5.30;;;8.70;40.30;;;;;;10292192;28;20756;-78
2023/11/27 14:06:51;;;;;;;7.37;3.33;;;8.70;40.30;;;;;;10299528;28;20235;-77
2023/11/27 14:11:59;;;;;;;4.27;3.60;;;8.70;40.20;;;;;;10298552;28;20249;-77
2023/11/27 14:17:18;;;;;;;4.30;3.60;;;8.70;39.80;;;;;;10287320;28;20310;-77
2023/11/27 14:28:19;;;;;;;4.73;3.30;;;8.80;39.80;;;;;;10253387;28;20817;-76
2023/11/27 14:33:23;;;;;;;3.10;2.80;;;8.70;39.80;;;;;;10298087;28;20343;-77
2023/11/27 14:38:27;;;;;;;2.93;2.30;;;8.70;39.80;;;;;;10295441;28;20307;-78
2023/11/27 14:43:32;;;;;;;3.13;2.13;;;8.60;39.70;;;;;;10308567;28;20638;-76
2023/11/27 14:48:39;;;;;;;2.47;1.80;;;8.60;39.70;;;;;;10330280;28;20260;-76
2023/11/27 14:53:52;;;;;;;2.07;1.50;;;8.60;39.80;;;;;;10278337;28;20750;-76
2023/11/27 14:58:56;;;;;;;2.10;1.90;;;8.60;39.70;;;;;;10303272;28;20262;-77
2023/11/27 15:03:59;;;;;;;3.43;2.17;;;8.60;40.00;;;;;;10294179;28;20239;-76
2023/11/27 15:09:17;;;;;;;2.60;2.40;;;8.70;40.00;;;;;;10286717;28;20580;-76
2023/11/27 15:14:21;;;;;;;2.30;1.90;;;8.70;39.80;;;;;;10287299;28;20243;-76
2023/11/27 15:19:25;;;;;;;2.40;2.20;;;8.70;39.80;;;;;;10286818;28;20223;-76
2023/11/27 15:24:31;;;;;;;4.20;2.30;;;8.70;39.80;;;;;;10328578;28;20784;-76
2023/11/27 15:29:35;;;;;;;2.50;1.57;;;8.70;39.80;;;;;;10334785;28;20310;-76
2023/11/27 15:34:38;;;;;;;5.53;3.97;;;8.60;39.70;;;;;;10334727;28;20267;-76
2023/11/27 15:39:48;;;;;;;2.20;1.87;;;8.50;40.20;;;;;;10331256;28;20603;-77
2023/11/27 15:44:51;;;;;;;1.83;1.70;;;8.40;39.80;;;;;;10331888;28;20301;-76
2023/11/27 15:49:54;;;;;;;1.70;1.60;;;8.30;40.10;;;;;;10309787;28;20331;-77
2023/11/27 15:54:58;;;;;;;1.60;1.50;;;8.30;40.20;;;;;;10299918;28;20286;-77
2023/11/27 16:00:05;;;;;;;1.90;1.50;;;8.10;40.00;;;;;;10334179;28;20226;-76
2023/11/27 16:05:09;;;;;;;1.50;1.40;;;8.00;40.50;;;;;;10314138;28;20243;-77
2023/11/27 16:10:15;;;;;;;1.43;1.33;;;7.80;40.60;;;;;;10325175;28;20232;-77
2023/11/27 16:15:20;;;;;;;3.00;2.70;;;7.70;40.90;;;;;;10301265;28;20255;-77
2023/11/27 16:20:24;;;;;;;1.60;1.50;;;7.60;41.10;;;;;;10281191;28;20887;-76
2023/11/27 16:25:29;;;;;;;3.70;2.40;;;7.50;41.00;;;;;;10269437;28;20241;-77
2023/11/27 16:30:35;;;;;;;2.77;2.57;;;7.30;41.20;;;;;;10269775;28;20243;-77
2023/11/27 16:35:39;;;;;;;4.10;2.90;;;7.10;41.40;;;;;;10272588;28;20325;-79
2023/11/27 16:40:47;;;;;;;3.77;2.40;;;6.90;41.60;;;;;;10277604;28;21026;-78
2023/11/27 16:45:50;;;;;;;2.30;2.10;;;6.70;41.90;;;;;;10271346;28;20227;-78
2023/11/27 16:50:53;;;;;;;3.93;2.60;;;6.60;42.00;;;;;;10280521;28;20302;-78
2023/11/27 16:55:59;;;;;;;5.80;5.27;;;6.50;42.80;;;;;;10267256;28;20231;-78
2023/11/27 17:01:05;;;;;;;18.97;17.07;;;6.40;42.30;;;;;;10272766;28;20227;-77
2023/11/27 17:06:09;;;;;;;27.57;24.07;;;6.30;42.10;;;;;;10269217;28;20253;-77
2023/11/27 17:11:15;;;;;;;31.67;25.03;;;6.30;42.30;;;;;;10278764;28;20280;-78
2023/11/27 17:16:18;;;;;;;31.70;26.67;;;6.20;42.40;;;;;;10275461;28;20310;-77
2023/11/27 17:21:21;;;;;;;17.60;15.83;;;6.10;42.50;;;;;;10257691;28;22365;-77
2023/11/27 17:26:26;;;;;;;13.13;11.93;;;6.00;42.50;;;;;;10278692;28;20231;-79
2023/11/27 17:31:29;;;;;;;10.97;9.83;;;6.00;42.80;;;;;;10268626;28;20239;-78
2023/11/27 17:36:32;;;;;;;8.23;7.43;;;5.90;42.90;;;;;;10278135;28;20246;-77
2023/11/27 17:41:37;;;;;;;7.90;7.20;;;5.90;43.00;;;;;;10276581;28;20242;-77
2023/11/27 17:46:42;;;;;;;8.43;7.53;;;5.80;43.40;;;;;;10276950;28;20234;-77
2023/11/27 17:51:46;;;;;;;5.40;4.90;;;5.80;43.40;;;;;;10284372;28;20235;-77
2023/11/27 17:56:51;;;;;;;4.33;3.93;;;5.80;43.40;;;;;;10275655;28;20232;-76
2023/11/27 18:02:22;;;;;;;4.43;4.00;;;5.80;43.40;;;;;;10258700;28;20239;-73
2023/11/27 18:07:49;;;;;;;5.03;4.40;;;5.70;43.80;;;;;;10255817;28;20917;-74
2023/11/27 18:12:54;;;;;;;4.03;3.73;;;5.70;43.30;;;;;;10268946;28;20239;-73
2023/11/27 18:17:58;;;;;;;6.10;5.60;;;5.70;43.30;;;;;;10272178;28;20243;-75
2023/11/27 18:23:01;;;;;;;5.93;5.43;;;5.60;43.20;;;;;;10262564;28;20527;-74
2023/11/27 18:28:06;;;;;;;4.47;4.07;;;5.60;43.20;;;;;;10270282;28;20307;-74
2023/11/27 18:33:10;;;;;;;3.53;3.23;;;5.60;43.70;;;;;;10273520;28;20249;-75
2023/11/27 18:38:13;;;;;;;3.90;3.60;;;5.60;44.10;;;;;;10270441;28;20975;-73
2023/11/27 18:43:18;;;;;;;3.83;3.27;;;5.60;43.50;;;;;;10267666;28;20220;-74
2023/11/27 18:48:21;;;;;;;3.70;3.40;;;5.70;43.60;;;;;;10261533;28;20286;-74
2023/11/27 18:53:25;;;;;;;3.80;3.50;;;5.70;43.30;;;;;;10268427;28;20247;-74
2023/11/27 18:58:29;;;;;;;3.43;3.17;;;5.70;43.30;;;;;;10268667;28;20231;-74
2023/11/27 19:03:33;;;;;;;4.30;3.90;;;5.70;43.40;;;;;;10263522;28;20235;-74
2023/11/27 19:08:37;;;;;;;3.87;3.57;;;5.70;43.30;;;;;;10265843;28;20333;-74
2023/11/27 19:13:42;;;;;;;3.27;3.07;;;5.60;43.30;;;;;;10264627;28;20765;-74
2023/11/27 19:18:49;;;;;;;3.40;3.10;;;5.60;43.70;;;;;;10270400;28;20227;-74
2023/11/27 19:23:53;;;;;;;3.47;3.17;;;5.60;43.70;;;;;;10271164;28;20344;-74
2023/11/27 19:28:58;;;;;;;4.20;3.57;;;5.50;43.80;;;;;;10262599;28;20337;-74
2023/11/27 19:34:03;;;;;;;3.90;3.60;;;5.40;43.90;;;;;;10254151;28;20222;-74
2023/11/27 19:39:08;;;;;;;3.37;3.07;;;5.50;44.00;;;;;;10272978;28;20227;-75
2023/11/27 19:44:13;;;;;;;3.07;2.77;;;5.40;44.00;;;;;;10279787;28;20631;-74
2023/11/27 19:49:16;;;;;;;3.53;3.23;;;5.40;44.30;;;;;;10287077;28;20223;-75
2023/11/27 19:54:19;;;;;;;4.80;3.90;;;5.40;44.00;;;;;;10269861;28;20225;-75
2023/11/27 19:59:24;;;;;;;4.40;4.00;;;5.40;44.10;;;;;;10277713;28;20246;-74
2023/11/27 20:04:27;;;;;;;4.10;3.80;;;5.30;44.30;;;;;;10283520;28;20975;-75
2023/11/27 20:09:31;;;;;;;3.70;3.40;;;5.30;44.30;;;;;;10268016;28;20715;-74
2023/11/27 20:14:35;;;;;;;3.80;3.50;;;5.30;44.30;;;;;;10259610;28;20699;-74
2023/11/27 20:19:39;;;;;;;3.90;3.60;;;5.20;44.60;;;;;;10266664;28;20263;-74
2023/11/27 20:24:44;;;;;;;3.97;3.60;;;5.20;44.40;;;;;;10266466;28;20648;-74
2023/11/27 20:29:49;;;;;;;3.80;3.50;;;5.20;44.50;;;;;;10256488;28;20227;-74
2023/11/27 20:34:52;;;;;;;3.90;3.60;;;5.20;44.80;;;;;;10268922;28;20322;-74
2023/11/27 20:39:56;;;;;;;3.53;3.27;;;5.10;44.60;;;;;;10268837;28;20297;-75
2023/11/27 20:45:01;;;;;;;4.03;3.73;;;5.10;44.70;;;;;;10278493;28;20243;-76
2023/11/27 20:50:05;;;;;;;4.00;3.70;;;5.10;45.00;;;;;;10266743;28;20728;-75
2023/11/27 20:55:09;;;;;;;4.27;3.87;;;5.10;44.80;;;;;;10277667;28;20227;-77
2023/11/27 21:00:18;;;;;;;3.83;3.53;;;5.20;45.00;;;;;;10266145;28;20224;-78
2023/11/27 21:05:21;;;;;;;3.90;3.60;;;5.20;45.00;;;;;;10266592;28;20621;-78
2023/11/27 21:10:24;;;;;;;3.80;3.50;;;5.20;45.50;;;;;;10264895;28;20223;-78
2023/11/27 21:15:29;;;;;;;4.10;3.80;;;5.20;44.70;;;;;;10271715;28;20628;-78
2023/11/27 21:20:33;;;;;;;4.20;3.90;;;5.20;45.00;;;;;;10269615;28;20242;-78
2023/11/27 21:25:37;;;;;;;4.67;4.27;;;5.20;44.70;;;;;;10266185;28;20248;-78
2023/11/27 21:30:41;;;;;;;4.50;4.17;;;5.20;44.90;;;;;;10263600;28;20261;-78
2023/11/27 21:35:45;;;;;;;4.37;3.97;;;5.20;45.00;;;;;;10263701;28;20283;-78
2023/11/27 21:40:48;;;;;;;5.70;5.20;;;5.20;44.90;;;;;;10267846;28;20224;-78
2023/11/27 21:45:56;;;;;;;4.80;4.40;;;5.20;45.00;;;;;;10262795;28;20231;-77
2023/11/27 21:50:59;;;;;;;4.97;4.57;;;5.20;45.20;;;;;;10262862;28;20223;-77
2023/11/27 21:56:02;;;;;;;5.20;4.80;;;5.20;45.00;;;;;;10275022;28;20318;-76
2023/11/27 22:01:07;;;;;;;4.20;3.90;;;5.10;45.80;;;;;;10267988;28;20702;-78
2023/11/27 22:06:21;;;;;;;4.70;4.30;;;5.10;45.20;;;;;;10270883;28;20259;-78
2023/11/27 22:11:24;;;;;;;4.53;4.13;;;5.10;45.20;;;;;;10270535;28;21486;-78
2023/11/27 22:16:28;;;;;;;4.40;4.10;;;5.10;45.10;;;;;;10272391;28;20311;-77
2023/11/27 22:21:33;;;;;;;4.00;3.70;;;5.10;45.30;;;;;;10268138;28;21218;-77
2023/11/27 22:26:40;;;;;;;4.10;3.80;;;5.10;45.20;;;;;;10270653;28;20903;-78
2023/11/27 22:31:45;;;;;;;3.93;3.63;;;5.10;45.20;;;;;;10273937;28;20319;-78
2023/11/27 22:36:48;;;;;;;3.77;3.47;;;5.10;45.30;;;;;;10274559;28;20915;-77
2023/11/27 22:41:51;;;;;;;3.97;3.67;;;5.20;45.10;;;;;;10276228;28;21009;-77
2023/11/27 22:46:56;;;;;;;3.83;3.53;;;5.20;45.10;;;;;;10271975;28;20239;-74
2023/11/27 22:51:59;;;;;;;3.40;3.10;;;5.10;45.30;;;;;;10284356;28;20247;-75
2023/11/27 22:57:03;;;;;;;3.70;3.40;;;5.10;45.20;;;;;;10287536;28;20223;-75
2023/11/27 23:02:08;;;;;;;3.60;3.30;;;5.20;45.30;;;;;;10275994;28;20232;-75
2023/11/27 23:07:11;;;;;;;3.70;3.40;;;5.20;45.50;;;;;;10266988;28;20240;-76
2023/11/27 23:12:15;;;;;;;3.33;3.03;;;5.20;45.30;;;;;;10273720;28;20238;-76
2023/11/27 23:17:19;;;;;;;3.03;2.83;;;5.20;45.20;;;;;;10263573;28;21119;-76
2023/11/27 23:22:24;;;;;;;3.40;3.10;;;5.20;45.60;;;;;;10260384;28;20462;-76
2023/11/27 23:27:27;;;;;;;2.97;2.67;;;5.20;45.30;;;;;;10275861;28;20283;-75
2023/11/27 23:32:32;;;;;;;3.00;2.80;;;5.20;45.40;;;;;;10281479;28;20302;-75
2023/11/27 23:37:35;;;;;;;3.03;2.83;;;5.20;45.60;;;;;;10276183;28;20311;-74
2023/11/27 23:42:39;;;;;;;3.30;3.00;;;5.20;45.40;;;;;;10267461;28;20334;-76
2023/11/27 23:47:43;;;;;;;3.23;2.93;;;5.30;45.40;;;;;;10265783;28;20234;-76
2023/11/27 23:52:46;;;;;;;3.13;2.90;;;5.30;45.60;;;;;;10263812;28;20228;-76
2023/11/27 23:57:50;;;;;;;3.13;2.87;;;5.30;45.40;;;;;;10262052;28;20787;-76
